createdAt,value
2023-06-09T00:00:56.540Z,15.78
2023-06-09T00:06:00.334Z,15.70
2023-06-09T00:11:02.128Z,15.64
2023-06-09T00:16:03.862Z,15.57
2023-06-09T00:21:05.740Z,15.51
2023-06-09T00:26:07.291Z,15.45
2023-06-09T00:31:08.850Z,15.36
2023-06-09T00:36:10.388Z,15.29
2023-06-09T00:41:11.927Z,15.22
2023-06-09T00:46:13.574Z,15.15
2023-06-09T00:51:15.703Z,15.08
2023-06-09T00:56:19.496Z,15.04
2023-06-09T01:01:21.170Z,15.04
2023-06-09T01:06:40.256Z,15.04
2023-06-09T01:12:00.491Z,14.98
2023-06-09T01:17:12.481Z,14.94
2023-06-09T01:22:29.394Z,14.91
2023-06-09T01:27:31.210Z,14.88
2023-06-09T01:32:33.961Z,14.84
2023-06-09T01:37:35.738Z,14.75
2023-06-09T01:42:38.822Z,14.69
2023-06-09T01:47:40.816Z,14.61
2023-06-09T01:53:05.464Z,14.53
2023-06-09T01:58:25.204Z,14.48
2023-06-09T02:03:31.204Z,14.45
2023-06-09T02:08:33.775Z,14.40
2023-06-09T02:13:35.764Z,14.37
2023-06-09T02:18:38.386Z,14.34
2023-06-09T02:23:40.514Z,14.33
2023-06-09T02:28:42.298Z,14.34
2023-06-09T02:33:44.188Z,14.36
2023-06-09T02:38:46.308Z,14.39
2023-06-09T02:43:47.841Z,14.53
2023-06-09T02:48:50.139Z,15.51
2023-06-09T02:53:51.796Z,16.63
2023-06-09T02:58:54.382Z,18.35
2023-06-09T03:03:55.996Z,20.00
2023-06-09T03:08:57.638Z,21.59
2023-06-09T03:13:59.211Z,22.87
2023-06-09T03:19:01.562Z,23.50
2023-06-09T03:24:04.864Z,24.04
2023-06-09T03:29:06.458Z,24.41
2023-06-09T03:34:08.329Z,25.14
2023-06-09T03:39:09.763Z,23.56
2023-06-09T03:44:11.348Z,21.72
2023-06-09T03:49:12.928Z,20.66
2023-06-09T03:54:14.496Z,19.71
2023-06-09T03:59:16.257Z,19.08
2023-06-09T04:04:17.845Z,18.57
2023-06-09T04:09:19.816Z,18.20
2023-06-09T04:14:21.376Z,18.10
2023-06-09T04:19:23.468Z,18.02
2023-06-09T04:24:25.046Z,18.05
2023-06-09T04:29:27.206Z,18.01
2023-06-09T04:34:30.154Z,18.02
2023-06-09T04:39:31.685Z,17.98
2023-06-09T04:44:33.974Z,18.15
2023-06-09T04:49:36.263Z,18.28
2023-06-09T04:54:37.792Z,18.38
2023-06-09T04:59:42.977Z,18.47
2023-06-09T05:04:44.706Z,18.49
2023-06-09T05:09:46.666Z,18.47
2023-06-09T05:14:48.297Z,18.60
2023-06-09T05:19:49.826Z,18.77
2023-06-09T05:24:51.933Z,18.96
2023-06-09T05:29:53.452Z,19.05
2023-06-09T05:34:54.976Z,19.12
2023-06-09T05:39:56.768Z,19.26
2023-06-09T05:44:58.322Z,19.37
2023-06-09T05:49:59.889Z,19.54
2023-06-09T05:55:02.830Z,19.77
2023-06-09T06:00:09.884Z,19.85
2023-06-09T06:05:13.470Z,20.01
2023-06-09T06:10:15.601Z,20.19
2023-06-09T06:15:17.377Z,20.33
2023-06-09T06:20:18.902Z,20.50
2023-06-09T06:25:20.467Z,20.63
2023-06-09T06:30:28.541Z,20.77
2023-06-09T06:35:30.563Z,20.90
2023-06-09T06:40:32.345Z,21.02
2023-06-09T06:45:33.883Z,21.15
2023-06-09T06:50:35.428Z,21.27
2023-06-09T06:55:38.234Z,21.38
2023-06-09T07:00:40.589Z,21.54
2023-06-09T07:05:42.145Z,21.63
2023-06-09T07:10:43.667Z,21.73
2023-06-09T07:15:45.341Z,21.84
2023-06-09T07:20:48.817Z,21.92
2023-06-09T07:25:50.767Z,21.97
2023-06-09T07:30:53.142Z,22.03
2023-06-09T07:35:54.565Z,22.22
2023-06-09T07:40:56.186Z,22.38
2023-06-09T07:45:57.993Z,22.57
2023-06-09T07:51:04.167Z,22.72
2023-06-09T07:56:05.741Z,22.96
2023-06-09T08:01:07.256Z,23.14
2023-06-09T08:06:11.691Z,23.17
2023-06-09T08:11:13.282Z,23.10
2023-06-09T08:16:14.831Z,23.06
2023-06-09T08:21:17.540Z,23.04
2023-06-09T08:26:19.362Z,23.02
2023-06-09T08:31:21.561Z,23.23
2023-06-09T08:36:24.210Z,23.47
2023-06-09T08:41:33.481Z,23.65
2023-06-09T08:46:39.461Z,23.80
2023-06-09T08:51:44.224Z,23.94
2023-06-09T08:56:48.444Z,24.22
2023-06-09T09:01:51.195Z,24.21
2023-06-09T09:06:54.589Z,24.18
2023-06-09T09:11:59.647Z,24.32
2023-06-09T09:17:08.801Z,24.62
2023-06-09T09:22:10.364Z,24.69
2023-06-09T09:27:20.014Z,24.71
2023-06-09T09:32:29.921Z,24.65
2023-06-09T09:37:32.194Z,24.58
2023-06-09T09:42:34.122Z,24.66
2023-06-09T09:47:35.706Z,24.83
2023-06-09T09:52:37.522Z,25.09
2023-06-09T09:57:40.981Z,25.44
2023-06-09T10:02:44.799Z,25.76
2023-06-09T10:07:53.016Z,25.92
2023-06-09T10:12:56.781Z,26.12
2023-06-09T10:17:59.642Z,26.23
2023-06-09T10:23:01.753Z,26.16
2023-06-09T10:28:03.736Z,26.43
2023-06-09T10:33:19.429Z,26.65
2023-06-09T10:38:26.927Z,27.02
2023-06-09T10:44:07.103Z,27.28
2023-06-09T10:49:09.372Z,27.30
2023-06-09T10:54:11.234Z,26.92
2023-06-09T10:59:25.041Z,26.88
2023-06-09T11:04:50.241Z,26.95
2023-06-09T11:09:51.757Z,26.76
2023-06-09T11:14:58.960Z,26.51
2023-06-09T11:20:22.000Z,26.19
2023-06-09T11:25:27.770Z,25.86
2023-06-09T11:30:32.657Z,25.58
2023-06-09T11:35:40.906Z,25.29
2023-06-09T11:40:53.379Z,24.71
2023-06-09T11:46:02.974Z,24.26
2023-06-09T11:51:04.713Z,24.04
2023-06-09T11:56:06.304Z,23.86
2023-06-09T12:01:07.907Z,23.59
2023-06-09T12:06:09.442Z,23.39
2023-06-09T12:11:20.570Z,23.12
2023-06-09T12:16:25.117Z,22.67
2023-06-09T12:21:26.775Z,22.45
2023-06-09T12:26:38.791Z,22.62
2023-06-09T12:31:47.946Z,22.63
2023-06-09T12:36:51.058Z,22.62
2023-06-09T12:41:53.112Z,22.68
2023-06-09T12:46:58.243Z,22.82
2023-06-09T12:52:01.140Z,22.98
2023-06-09T12:57:02.711Z,22.98
2023-06-09T13:02:04.741Z,22.92
2023-06-09T13:07:06.296Z,23.04
2023-06-09T13:12:08.481Z,23.21
2023-06-09T13:17:10.048Z,23.34
2023-06-09T13:22:11.691Z,23.60
2023-06-09T13:27:13.275Z,23.91
2023-06-09T13:32:14.858Z,24.04
2023-06-09T13:37:16.400Z,24.37
2023-06-09T13:42:17.918Z,24.69
2023-06-09T13:47:19.652Z,25.04
2023-06-09T13:52:21.193Z,25.14
2023-06-09T13:57:22.732Z,24.89
2023-06-09T14:02:24.693Z,25.10
2023-06-09T14:07:27.256Z,25.04
2023-06-09T14:12:28.978Z,24.79
2023-06-09T14:17:30.631Z,24.51
2023-06-09T14:22:32.277Z,24.36
2023-06-09T14:27:33.806Z,24.26
2023-06-09T14:32:38.317Z,24.22
2023-06-09T14:37:40.042Z,24.11
2023-06-09T14:42:41.577Z,24.05
2023-06-09T14:47:43.186Z,24.07
2023-06-09T14:52:44.885Z,24.22
2023-06-09T14:57:46.441Z,24.61
2023-06-09T15:02:52.008Z,24.84
2023-06-09T15:07:58.686Z,24.71
2023-06-09T15:13:01.703Z,24.56
2023-06-09T15:18:09.848Z,24.38
2023-06-09T15:23:12.757Z,24.17
2023-06-09T15:28:16.695Z,23.93
2023-06-09T15:33:20.738Z,23.70
2023-06-09T15:38:29.992Z,23.52
2023-06-09T15:43:38.206Z,23.40
2023-06-09T15:48:40.333Z,23.32
2023-06-09T15:53:41.882Z,23.24
2023-06-09T15:58:43.434Z,23.21
2023-06-09T16:03:45.089Z,23.20
2023-06-09T16:08:46.812Z,23.20
2023-06-09T16:13:48.368Z,23.17
2023-06-09T16:18:49.933Z,23.01
2023-06-09T16:23:52.149Z,22.86
2023-06-09T16:28:54.080Z,22.77
2023-06-09T16:33:55.592Z,22.70
2023-06-09T16:38:57.118Z,22.64
2023-06-09T16:44:01.288Z,22.60
2023-06-09T16:49:03.413Z,22.48
2023-06-09T16:54:05.181Z,22.37
2023-06-09T16:59:06.751Z,22.30
2023-06-09T17:04:08.440Z,22.20
2023-06-09T17:09:10.249Z,22.15
2023-06-09T17:14:11.782Z,22.10
2023-06-09T17:19:13.340Z,22.07
2023-06-09T17:24:15.136Z,21.94
2023-06-09T17:29:16.944Z,21.79
2023-06-09T17:34:18.754Z,21.60
2023-06-09T17:39:20.294Z,21.40
2023-06-09T17:44:21.890Z,21.16
2023-06-09T17:49:23.532Z,20.98
2023-06-09T17:54:27.087Z,20.86
2023-06-09T17:59:28.629Z,20.76
2023-06-09T18:04:30.155Z,20.70
2023-06-09T18:09:32.990Z,20.65
2023-06-09T18:14:34.541Z,20.66
2023-06-09T18:19:37.273Z,20.64
2023-06-09T18:24:38.804Z,20.51
2023-06-09T18:29:40.496Z,20.40
2023-06-09T18:34:42.479Z,20.31
2023-06-09T18:39:44.200Z,20.22
2023-06-09T18:44:45.990Z,20.17
2023-06-09T18:49:48.320Z,20.12
2023-06-09T18:54:50.341Z,20.07
2023-06-09T18:59:52.005Z,20.04
2023-06-09T19:04:53.636Z,20.00
2023-06-09T19:09:55.839Z,19.94
2023-06-09T19:14:58.039Z,19.89
2023-06-09T19:19:59.899Z,19.88
2023-06-09T19:25:01.481Z,19.87
2023-06-09T19:30:04.680Z,19.85
2023-06-09T19:35:07.232Z,19.85
2023-06-09T19:40:10.052Z,19.82
2023-06-09T19:45:11.988Z,19.82
2023-06-09T19:50:13.620Z,19.80
2023-06-09T19:55:18.159Z,19.78
2023-06-09T20:00:26.444Z,19.76
2023-06-09T20:05:28.044Z,19.74
2023-06-09T20:10:29.799Z,19.73
2023-06-09T20:15:31.459Z,19.71
2023-06-09T20:20:33.567Z,19.70
2023-06-09T20:25:35.433Z,19.67
2023-06-09T20:30:37.372Z,19.64
2023-06-09T20:35:38.883Z,19.59
2023-06-09T20:40:40.453Z,19.54
2023-06-09T20:45:43.451Z,19.49
2023-06-09T20:50:46.227Z,19.44
2023-06-09T20:55:47.799Z,19.42
2023-06-09T21:00:52.343Z,19.37
2023-06-09T21:05:54.210Z,19.30
2023-06-09T21:10:55.880Z,19.24
2023-06-09T21:15:57.787Z,19.16
2023-06-09T21:20:59.783Z,19.10
2023-06-09T21:26:01.420Z,19.04
2023-06-09T21:31:03.475Z,18.99
2023-06-09T21:36:06.632Z,18.94
2023-06-09T21:41:08.366Z,18.92
2023-06-09T21:46:09.902Z,18.90
2023-06-09T21:51:11.439Z,18.88
2023-06-09T21:56:13.680Z,18.85
2023-06-09T22:01:16.404Z,18.81
2023-06-09T22:06:18.176Z,18.79
2023-06-09T22:11:19.712Z,18.76
2023-06-09T22:16:21.901Z,18.71
2023-06-09T22:21:23.573Z,18.66
2023-06-09T22:26:25.130Z,18.63
2023-06-09T22:31:28.241Z,18.60
2023-06-09T22:36:29.942Z,18.60
2023-06-09T22:41:31.797Z,18.59
2023-06-09T22:46:33.387Z,18.59
2023-06-09T22:51:35.067Z,18.60
2023-06-09T22:56:36.797Z,18.60
2023-06-09T23:01:38.365Z,18.63
2023-06-09T23:06:41.257Z,18.64
2023-06-09T23:11:42.777Z,18.64
2023-06-09T23:16:44.599Z,18.65
2023-06-09T23:21:51.200Z,18.66
2023-06-09T23:26:52.739Z,18.66
2023-06-09T23:31:54.317Z,18.67
2023-06-09T23:36:56.523Z,18.68
2023-06-09T23:41:58.038Z,18.65
2023-06-09T23:46:59.940Z,18.61
2023-06-09T23:52:01.979Z,18.58
2023-06-09T23:57:03.674Z,18.53
